Portada
METAR-TAF:

METAR-TAF

Aeroports :

Port Vila, Éfaté, Vanuatu

latitud: 17-42S, longitud: 168-18E, altitud: 20 m

Observació

L'informe es va fer fa 1 hora i 10 minuts, a les 18:00 UTC
Vent 2 kt del Est
Temperatura 21°C
Humitat 94%
Pressió 1014 hPa
Visibilitat 10 km o més
Cel ennuvolat a una alçada de 2000 ft
Cel cobert a una alçada de 10000 ft

METAR: NVVV 051800Z 09002KT 9999 BKN020 OVC100 21/20 Q1014

Hora: 06:10 (19:10 UTC)

Pronòstic

L'informe es va fer fa 3 hores i 10 minuts, a les 16:00 UTC
Pronòstic vàlid del 05 a les 18 UTC al 06 a les 18 UTC
Vent 2 kt amb direcció variable
Visibilitat: 9000 m
Núvols disperses a una alçada de 2000 ft
Cel ennuvolat a una alçada de 4000 ft
Cel ennuvolat a una alçada de 1800 ft
xàfecs de pluja

TAF: NVVV 051600Z 0518/0618 VRB02KT 9999 SCT020 BKN040 INTER 0518/0524 9000 -SHRA BKN018

Observacions i pronòstics meteorològics de més de 4000 aeroports (METAR i TAF).

Les estacions disponibles són els punts grocs i vermells al mapa.

Posi el ratolí al punt desitjat per veure el nom de l'estació.

Feu clic per veure les observacions i els pronòstics meteorològics.

Per canviar el mapa: feu clic els botons verds amb una creu de color negre per apropar; al botó verd amb un guió per allunyar la imatge; o en les fletxes verdes per a mapes adjacents.


METAR-TAF: